createdAt,value
2022-10-04T00:02:00.074Z,97177.78
2022-10-04T00:04:30.779Z,97172.63
2022-10-04T00:07:04.450Z,97177.59
2022-10-04T00:09:33.475Z,97173.38
2022-10-04T00:12:01.463Z,97216.22
2022-10-04T00:14:30.681Z,97169.44
2022-10-04T00:16:58.601Z,97166.22
2022-10-04T00:19:27.637Z,97161.13
2022-10-04T00:22:27.944Z,97162.69
2022-10-04T00:25:04.072Z,97154.84
2022-10-04T00:27:31.867Z,97158.94
2022-10-04T00:30:16.093Z,97158.44
2022-10-04T00:33:01.425Z,97151.31
2022-10-04T00:35:44.767Z,97155.91
2022-10-04T00:38:14.848Z,97153.53
2022-10-04T00:40:46.550Z,97148.28
2022-10-04T00:43:14.539Z,97140.72
2022-10-04T00:45:44.151Z,97137.66
2022-10-04T00:48:31.035Z,97137.69
2022-10-04T00:51:02.417Z,97142.09
2022-10-04T00:53:47.871Z,97145.47
2022-10-04T00:56:18.584Z,97151.53
2022-10-04T00:58:48.008Z,97146.34
2022-10-04T01:01:17.734Z,97148.56
2022-10-04T01:03:46.528Z,97153.00
2022-10-04T01:06:14.149Z,97152.28
2022-10-04T01:08:42.134Z,96892.63
2022-10-04T01:11:11.297Z,97147.53
2022-10-04T01:13:41.353Z,97148.56
2022-10-04T01:16:11.915Z,97151.88
2022-10-04T01:18:39.789Z,97142.03
2022-10-04T01:21:08.605Z,97137.28
2022-10-04T01:23:44.486Z,97120.69
2022-10-04T01:26:32.085Z,97118.47
2022-10-04T01:29:00.224Z,97118.84
2022-10-04T01:31:27.941Z,97119.06
2022-10-04T01:33:55.625Z,97118.84
2022-10-04T01:36:26.285Z,97116.38
2022-10-04T01:38:55.404Z,97105.97
2022-10-04T01:41:25.293Z,97109.50
2022-10-04T01:43:53.646Z,97106.56
2022-10-04T01:46:22.118Z,97095.69
2022-10-04T01:48:58.670Z,97095.56
2022-10-04T01:51:27.067Z,97099.41
2022-10-04T01:53:58.149Z,97106.44
2022-10-04T01:56:35.616Z,97090.31
2022-10-04T01:59:05.609Z,97095.47
2022-10-04T02:01:34.019Z,97090.81
2022-10-04T02:04:02.723Z,97089.50
2022-10-04T02:06:30.453Z,97093.19
2022-10-04T02:08:59.350Z,97091.56
2022-10-04T02:11:30.216Z,97086.88
2022-10-04T02:13:57.847Z,97091.66
2022-10-04T02:16:26.541Z,97089.69
2022-10-04T02:18:54.443Z,97093.03
2022-10-04T02:21:22.030Z,97090.50
2022-10-04T02:23:49.618Z,97081.41
2022-10-04T02:26:23.226Z,97081.00
2022-10-04T02:28:50.816Z,97075.84
2022-10-04T02:31:36.078Z,97081.19
2022-10-04T02:34:05.289Z,97066.41
2022-10-04T02:36:33.368Z,97069.94
2022-10-04T02:39:02.106Z,97073.00
2022-10-04T02:41:32.321Z,97064.31
2022-10-04T02:44:01.004Z,97057.25
2022-10-04T02:46:29.313Z,97068.94
2022-10-04T02:48:59.460Z,97063.19
2022-10-04T02:51:28.898Z,97069.06
2022-10-04T02:54:05.297Z,97071.69
2022-10-04T02:56:38.002Z,97068.88
2022-10-04T02:59:06.308Z,97069.59
2022-10-04T03:01:45.198Z,97057.50
2022-10-04T03:04:13.440Z,97059.00
2022-10-04T03:06:42.502Z,97064.25
2022-10-04T03:09:10.085Z,97062.41
2022-10-04T03:11:43.176Z,97054.69
2022-10-04T03:14:14.505Z,97050.31
2022-10-04T03:16:43.213Z,97052.06
2022-10-04T03:19:10.790Z,97043.81
2022-10-04T03:21:38.793Z,97055.50
2022-10-04T03:24:06.779Z,97062.94
2022-10-04T03:26:35.387Z,97080.28
2022-10-04T03:29:05.081Z,97056.25
2022-10-04T03:31:32.973Z,97050.56
2022-10-04T03:34:00.906Z,97050.34
2022-10-04T03:36:28.589Z,97050.25
2022-10-04T03:38:59.472Z,97050.75
2022-10-04T03:41:27.201Z,97045.25
2022-10-04T03:43:57.884Z,97047.97
2022-10-04T03:46:28.822Z,97039.13
2022-10-04T03:48:57.611Z,97039.84
2022-10-04T03:51:26.093Z,97042.69
2022-10-04T03:53:57.248Z,96781.06
2022-10-04T03:56:28.469Z,97037.25
2022-10-04T03:59:00.467Z,97040.69
2022-10-04T04:01:34.147Z,97035.75
2022-10-04T04:04:03.046Z,97039.72
2022-10-04T04:06:43.445Z,97035.00
2022-10-04T04:09:12.588Z,97044.50
2022-10-04T04:11:43.265Z,97043.72
2022-10-04T04:14:13.195Z,97040.91
2022-10-04T04:16:43.655Z,97039.56
2022-10-04T04:19:12.569Z,97031.03
2022-10-04T04:21:40.648Z,97035.94
2022-10-04T04:24:10.141Z,97039.81
2022-10-04T04:26:49.820Z,97031.06
2022-10-04T04:29:18.605Z,97028.75
2022-10-04T04:31:48.911Z,97021.34
2022-10-04T04:34:18.115Z,97028.81
2022-10-04T04:36:45.796Z,97027.56
2022-10-04T04:39:33.111Z,96781.19
2022-10-04T04:42:05.800Z,97029.91
2022-10-04T04:44:33.357Z,97019.81
2022-10-04T04:47:06.434Z,97027.47
2022-10-04T04:49:34.538Z,97026.78
2022-10-04T04:52:04.997Z,97038.53
2022-10-04T04:54:32.566Z,97033.63
2022-10-04T04:57:00.552Z,97040.69
2022-10-04T04:59:28.289Z,97045.69
2022-10-04T05:01:58.805Z,97042.53
2022-10-04T05:04:28.876Z,97045.47
2022-10-04T05:07:06.717Z,97051.22
2022-10-04T05:09:38.441Z,97056.06
2022-10-04T05:12:09.187Z,97056.94
2022-10-04T05:14:38.588Z,97048.75
2022-10-04T05:17:08.983Z,97049.56
2022-10-04T05:19:39.125Z,97050.06
2022-10-04T05:22:11.700Z,97052.09
2022-10-04T05:24:40.214Z,97042.28
2022-10-04T05:27:18.404Z,97046.59
2022-10-04T05:29:51.227Z,97053.53
2022-10-04T05:32:23.822Z,97049.78
2022-10-04T05:34:54.760Z,97050.09
2022-10-04T05:37:44.229Z,97052.00
2022-10-04T05:40:19.546Z,97044.72
2022-10-04T05:42:48.005Z,97047.75
2022-10-04T05:45:18.772Z,97053.38
2022-10-04T05:47:51.802Z,97055.31
2022-10-04T05:50:21.694Z,97054.84
2022-10-04T05:52:57.264Z,97057.16
2022-10-04T05:55:27.485Z,97055.75
2022-10-04T05:58:04.303Z,97055.09
2022-10-04T06:00:34.889Z,97058.00
2022-10-04T06:03:12.416Z,97057.91
2022-10-04T06:05:49.893Z,97054.69
2022-10-04T06:08:31.256Z,97060.78
2022-10-04T06:11:05.566Z,97065.13
2022-10-04T06:13:52.328Z,97055.34
2022-10-04T06:16:22.034Z,97060.38
2022-10-04T06:18:59.905Z,97108.81
2022-10-04T06:21:32.693Z,97065.13
2022-10-04T06:24:01.764Z,97065.66
2022-10-04T06:26:36.761Z,97072.72
2022-10-04T06:29:08.349Z,97074.69
2022-10-04T06:31:52.611Z,97075.31
2022-10-04T06:34:37.041Z,97073.88
2022-10-04T06:37:21.171Z,97072.31
2022-10-04T06:40:06.701Z,97068.44
2022-10-04T06:42:49.486Z,97074.34
2022-10-04T06:45:34.112Z,97070.69
2022-10-04T06:48:07.241Z,97069.91
2022-10-04T06:50:37.116Z,97071.44
2022-10-04T06:53:19.070Z,97058.31
2022-10-04T06:55:54.626Z,97056.63
2022-10-04T06:58:47.070Z,97062.53
2022-10-04T07:01:21.013Z,97058.69
2022-10-04T07:03:51.748Z,97054.81
2022-10-04T07:06:21.833Z,97055.34
2022-10-04T07:08:51.129Z,97058.94
2022-10-04T07:11:21.275Z,97056.63
2022-10-04T07:13:52.681Z,96860.19
2022-10-04T07:16:38.500Z,97063.59
2022-10-04T07:19:09.813Z,97064.28
2022-10-04T07:21:38.944Z,97060.41
2022-10-04T07:24:12.247Z,97062.88
2022-10-04T07:26:43.697Z,97065.41
2022-10-04T07:29:25.585Z,97074.28
2022-10-04T07:32:03.951Z,97084.06
2022-10-04T07:34:33.648Z,97088.00
2022-10-04T07:37:03.220Z,97089.56
2022-10-04T07:39:31.716Z,97089.34
2022-10-04T07:42:02.683Z,97094.66
2022-10-04T07:44:35.126Z,97099.13
2022-10-04T07:47:06.700Z,97103.00
2022-10-04T07:49:38.757Z,97103.47
2022-10-04T07:52:27.260Z,97114.34
2022-10-04T07:54:57.656Z,97106.16
2022-10-04T07:57:28.504Z,97165.56
2022-10-04T07:59:59.012Z,97095.59
2022-10-04T08:02:31.403Z,97090.88
2022-10-04T08:05:01.822Z,97085.69
2022-10-04T08:07:32.628Z,97083.56
2022-10-04T08:10:02.841Z,97082.72
2022-10-04T08:12:33.038Z,97080.34
2022-10-04T08:15:10.318Z,97072.72
2022-10-04T08:17:48.753Z,97077.19
2022-10-04T08:20:35.864Z,97074.19
2022-10-04T08:23:09.436Z,97067.63
2022-10-04T08:25:42.556Z,97068.16
2022-10-04T08:28:30.240Z,97072.09
2022-10-04T08:31:02.825Z,97067.81
2022-10-04T08:33:42.604Z,97067.38
2022-10-04T08:36:13.334Z,97060.97
2022-10-04T08:38:46.530Z,97056.44
2022-10-04T08:41:29.388Z,97065.44
2022-10-04T08:44:23.276Z,97098.72
2022-10-04T08:47:06.995Z,97072.94
2022-10-04T08:49:49.950Z,97078.25
2022-10-04T08:52:41.042Z,97085.47
2022-10-04T08:55:24.385Z,97087.13
2022-10-04T08:58:10.186Z,97082.97
2022-10-04T09:00:52.714Z,97000.41
2022-10-04T09:03:30.429Z,97089.94
2022-10-04T09:06:00.135Z,97082.47
2022-10-04T09:08:47.007Z,96906.47
2022-10-04T09:11:24.280Z,97091.78
2022-10-04T09:13:56.849Z,97090.50
2022-10-04T09:16:29.931Z,97081.19
2022-10-04T09:19:10.382Z,97079.06
2022-10-04T09:21:47.155Z,97083.06
2022-10-04T09:24:48.705Z,97092.88
2022-10-04T09:27:49.958Z,97078.78
2022-10-04T09:30:19.701Z,97078.50
2022-10-04T09:33:14.611Z,97069.16
2022-10-04T09:36:07.016Z,97079.28
2022-10-04T09:38:46.659Z,97069.25
2022-10-04T09:41:29.530Z,97061.41
2022-10-04T09:44:01.305Z,97066.41
2022-10-04T09:46:40.196Z,97060.34
2022-10-04T09:49:10.021Z,97062.41
2022-10-04T09:52:01.497Z,97065.63
2022-10-04T09:54:41.088Z,96842.25
2022-10-04T09:57:30.311Z,97054.63
2022-10-04T10:00:10.609Z,97047.63
2022-10-04T10:02:44.757Z,97054.63
2022-10-04T10:05:17.208Z,97059.03
2022-10-04T10:07:49.426Z,97052.78
2022-10-04T10:10:35.851Z,97050.94
2022-10-04T10:13:31.922Z,97059.16
2022-10-04T10:16:00.767Z,97051.84
2022-10-04T10:18:31.578Z,97047.91
2022-10-04T10:21:02.645Z,97067.66
2022-10-04T10:23:45.350Z,97059.91
2022-10-04T10:26:34.082Z,97051.47
2022-10-04T10:29:23.991Z,96886.69
2022-10-04T10:32:04.744Z,97044.06
2022-10-04T10:34:56.544Z,97059.72
2022-10-04T10:37:26.643Z,97053.34
2022-10-04T10:40:12.384Z,97061.47
2022-10-04T10:42:46.736Z,97057.75
2022-10-04T10:45:21.761Z,97051.38
2022-10-04T10:47:55.341Z,97062.66
2022-10-04T10:50:30.479Z,97045.69
2022-10-04T10:53:12.534Z,97037.56
2022-10-04T10:55:49.662Z,97037.28
2022-10-04T10:58:34.405Z,97039.03
2022-10-04T11:01:08.716Z,97045.38
2022-10-04T11:03:55.254Z,97035.69
2022-10-04T11:06:26.104Z,97035.75
2022-10-04T11:09:15.552Z,97034.91
2022-10-04T11:11:50.697Z,97028.91
2022-10-04T11:14:43.905Z,97031.28
2022-10-04T11:17:27.523Z,97023.50
2022-10-04T11:20:15.939Z,97021.03
2022-10-04T11:23:00.291Z,97024.56
2022-10-04T11:25:54.768Z,97024.44
2022-10-04T11:28:29.478Z,97028.97
2022-10-04T11:31:15.558Z,97024.34
2022-10-04T11:33:53.052Z,97016.94
2022-10-04T11:36:25.960Z,97014.22
2022-10-04T11:38:58.784Z,97011.41
2022-10-04T11:41:29.545Z,97002.56
2022-10-04T11:44:06.212Z,97007.28
2022-10-04T11:46:36.609Z,96989.50
2022-10-04T11:49:12.936Z,96996.84
2022-10-04T11:52:13.255Z,96991.06
2022-10-04T11:54:51.390Z,96981.50
2022-10-04T11:57:25.140Z,96978.69
2022-10-04T11:59:56.031Z,96981.78
2022-10-04T12:02:56.920Z,96975.00
2022-10-04T12:05:32.379Z,96973.66
2022-10-04T12:08:07.978Z,96797.31
2022-10-04T12:10:38.541Z,96973.53
2022-10-04T12:13:21.094Z,96974.59
2022-10-04T12:15:53.415Z,96977.47
2022-10-04T12:18:28.703Z,96970.63
2022-10-04T12:21:01.907Z,96958.28
2022-10-04T12:23:47.231Z,96968.44
2022-10-04T12:26:19.473Z,96961.47
2022-10-04T12:28:55.142Z,96956.59
2022-10-04T12:31:24.200Z,96954.97
2022-10-04T12:33:55.032Z,96961.44
2022-10-04T12:36:32.176Z,96963.03
2022-10-04T12:39:05.260Z,96954.97
2022-10-04T12:41:36.011Z,96952.50
2022-10-04T12:44:07.901Z,96959.13
2022-10-04T12:46:47.922Z,96949.72
2022-10-04T12:49:18.549Z,96952.44
2022-10-04T12:51:59.164Z,96947.75
2022-10-04T12:54:38.061Z,96945.22
2022-10-04T12:57:20.474Z,96937.59
2022-10-04T12:59:51.048Z,96932.69
2022-10-04T13:02:25.794Z,96931.63
2022-10-04T13:04:56.439Z,96936.47
2022-10-04T13:07:34.926Z,96929.91
2022-10-04T13:10:23.501Z,96932.28
2022-10-04T13:13:13.317Z,96950.63
2022-10-04T13:18:37.299Z,96932.84
2022-10-04T13:21:06.892Z,96936.78
2022-10-04T13:23:42.200Z,96938.56
2022-10-04T13:26:26.137Z,96957.19
2022-10-04T13:28:56.302Z,96940.63
2022-10-04T13:31:24.895Z,96941.06
2022-10-04T13:33:58.348Z,96932.75
2022-10-04T13:36:28.397Z,96938.97
2022-10-04T13:39:08.411Z,96943.16
2022-10-04T13:41:40.031Z,96934.81
2022-10-04T13:44:28.934Z,96937.59
2022-10-04T13:47:05.706Z,96932.50
2022-10-04T13:49:42.621Z,96934.84
2022-10-04T13:52:31.212Z,96931.03
2022-10-04T13:55:20.142Z,96931.56
2022-10-04T13:57:51.561Z,96938.03
2022-10-04T14:00:23.399Z,96930.78
2022-10-04T14:03:12.033Z,96929.56
2022-10-04T14:05:57.881Z,96932.84
2022-10-04T14:08:33.184Z,96922.59
2022-10-04T14:11:20.018Z,96925.19
2022-10-04T14:13:53.485Z,96935.72
2022-10-04T14:16:40.671Z,96920.63
2022-10-04T14:19:16.165Z,96923.09
2022-10-04T14:22:02.387Z,96914.78
2022-10-04T14:24:49.791Z,96909.34
2022-10-04T14:27:39.601Z,96907.19
2022-10-04T14:30:12.599Z,96907.19
2022-10-04T14:33:04.855Z,96906.53
2022-10-04T14:35:37.583Z,96906.69
2022-10-04T14:38:10.776Z,96905.13
2022-10-04T14:40:56.874Z,96909.91
2022-10-04T14:43:44.761Z,96909.00
2022-10-04T14:46:18.139Z,96897.13
2022-10-04T14:48:52.926Z,96899.31
2022-10-04T14:51:41.791Z,96897.13
2022-10-04T14:54:11.635Z,96905.19
2022-10-04T14:56:58.191Z,96914.00
2022-10-04T14:59:35.869Z,96909.13
2022-10-04T15:02:19.443Z,96909.97
2022-10-04T15:05:03.037Z,96895.28
2022-10-04T15:07:31.786Z,96889.50
2022-10-04T15:10:04.107Z,96902.25
2022-10-04T15:16:00.543Z,96904.66
2022-10-04T15:18:32.296Z,96910.72
2022-10-04T15:21:00.148Z,96902.56
2022-10-04T15:23:32.120Z,96913.06
2022-10-04T15:26:01.047Z,96910.91
2022-10-04T15:28:32.902Z,96908.22
2022-10-04T15:31:02.031Z,96898.75
2022-10-04T15:33:33.340Z,96904.94
2022-10-04T15:36:25.960Z,96899.16
2022-10-04T15:38:57.198Z,96907.59
2022-10-04T15:41:27.963Z,96908.03
2022-10-04T15:44:12.990Z,96914.22
2022-10-04T15:46:43.092Z,96902.81
2022-10-04T15:49:36.994Z,96903.44
2022-10-04T15:52:23.660Z,96902.66
2022-10-04T15:55:13.694Z,96907.22
2022-10-04T15:57:52.280Z,96935.38
2022-10-04T16:00:22.493Z,96903.09
2022-10-04T16:02:58.657Z,96897.84
2022-10-04T16:05:28.906Z,96901.84
2022-10-04T16:08:01.644Z,96895.25
2022-10-04T16:10:31.478Z,96897.19
2022-10-04T16:13:20.132Z,96891.69
2022-10-04T16:15:49.812Z,96879.97
2022-10-04T16:18:29.030Z,96887.72
2022-10-04T16:21:12.874Z,96886.25
2022-10-04T16:23:47.640Z,96888.22
2022-10-04T16:26:16.130Z,96883.97
2022-10-04T16:28:58.630Z,96888.34
2022-10-04T16:31:40.551Z,96891.47
2022-10-04T16:34:10.496Z,96888.44
2022-10-04T16:36:47.918Z,96892.53
2022-10-04T16:39:46.713Z,96898.16
2022-10-04T16:42:15.513Z,96895.50
2022-10-04T16:44:48.141Z,96902.00
2022-10-04T16:47:19.144Z,96902.75
2022-10-04T16:49:50.244Z,96905.31
2022-10-04T16:52:27.422Z,96905.75
2022-10-04T16:55:05.132Z,96917.28
2022-10-04T16:57:33.047Z,96912.53
2022-10-04T17:00:06.896Z,96927.91
2022-10-04T17:02:52.947Z,96927.03
2022-10-04T17:05:25.509Z,96919.50
2022-10-04T17:07:59.067Z,96927.59
2022-10-04T17:10:34.237Z,96919.09
2022-10-04T17:13:07.859Z,96919.50
2022-10-04T17:15:40.732Z,96920.81
2022-10-04T17:18:13.960Z,96917.66
2022-10-04T17:20:46.830Z,96926.19
2022-10-04T17:23:21.729Z,96922.66
2022-10-04T17:25:51.957Z,96921.06
2022-10-04T17:28:23.131Z,96915.91
2022-10-04T17:30:52.373Z,96915.19
2022-10-04T17:33:22.821Z,96912.25
2022-10-04T17:36:02.109Z,96914.50
2022-10-04T17:38:35.208Z,96905.69
2022-10-04T17:41:06.067Z,96897.81
2022-10-04T17:43:36.966Z,96899.69
2022-10-04T17:46:07.411Z,96924.84
2022-10-04T17:48:57.549Z,96885.72
2022-10-04T17:51:52.826Z,96885.50
2022-10-04T17:54:40.787Z,96894.47
2022-10-04T17:57:12.140Z,96904.09
2022-10-04T17:59:40.765Z,96902.97
2022-10-04T18:02:10.971Z,96903.38
2022-10-04T18:04:40.443Z,96900.47
2022-10-04T18:07:10.362Z,96892.25
2022-10-04T18:09:44.130Z,96893.00
2022-10-04T18:12:13.003Z,96900.31
2022-10-04T18:14:48.125Z,96902.28
2022-10-04T18:17:24.605Z,96899.34
2022-10-04T18:19:55.167Z,96900.63
2022-10-04T18:22:23.798Z,96910.31
2022-10-04T18:25:10.372Z,96906.00
2022-10-04T18:27:44.703Z,96900.47
2022-10-04T18:30:14.436Z,96909.63
2022-10-04T18:32:47.578Z,96912.53
2022-10-04T18:35:35.086Z,96916.78
2022-10-04T18:38:21.238Z,96916.03
2022-10-04T18:40:57.141Z,96923.72
2022-10-04T18:43:26.141Z,96924.81
2022-10-04T18:46:01.416Z,96932.28
2022-10-04T18:48:37.862Z,96937.56
2022-10-04T18:51:27.444Z,96938.78
2022-10-04T18:54:00.069Z,96930.47
2022-10-04T18:56:34.183Z,96924.38
2022-10-04T18:59:25.187Z,96931.03
2022-10-04T19:02:01.165Z,96935.41
2022-10-04T19:04:32.287Z,96928.38
2022-10-04T19:07:02.223Z,96928.94
2022-10-04T19:09:31.532Z,96935.56
2022-10-04T19:12:01.617Z,96696.25
2022-10-04T19:14:30.637Z,96939.41
2022-10-04T19:16:59.603Z,96940.19
2022-10-04T19:19:30.884Z,96941.09
2022-10-04T19:22:00.867Z,96938.72
2022-10-04T19:24:35.857Z,96940.16
2022-10-04T19:27:05.802Z,96946.84
2022-10-04T19:29:38.075Z,96940.78
2022-10-04T19:32:09.283Z,96939.38
2022-10-04T19:34:39.488Z,96942.94
2022-10-04T19:37:09.031Z,96938.25
2022-10-04T19:39:41.594Z,96943.03
2022-10-04T19:42:12.937Z,96948.47
2022-10-04T19:44:46.158Z,96956.84
2022-10-04T19:47:19.013Z,96964.25
2022-10-04T19:49:47.216Z,96960.81
2022-10-04T19:52:25.515Z,96965.72
2022-10-04T19:54:54.282Z,96970.34
2022-10-04T19:57:27.937Z,96970.41
2022-10-04T19:59:55.685Z,96973.56
2022-10-04T20:02:23.447Z,96966.09
2022-10-04T20:04:52.364Z,96974.22
2022-10-04T20:07:22.513Z,96987.13
2022-10-04T20:09:54.821Z,96991.63
2022-10-04T20:12:36.062Z,96994.25
2022-10-04T20:15:34.734Z,96989.00
2022-10-04T20:18:05.616Z,97004.00
2022-10-04T20:20:48.398Z,97000.00
2022-10-04T20:23:17.286Z,97006.28
2022-10-04T20:26:00.043Z,97004.75
2022-10-04T20:28:44.104Z,97010.53
2022-10-04T20:31:15.466Z,97006.75
2022-10-04T20:33:47.093Z,97018.03
2022-10-04T20:36:29.538Z,97016.22
2022-10-04T20:39:00.125Z,97019.13
2022-10-04T20:42:08.720Z,97023.88
2022-10-04T20:44:45.077Z,97025.31
2022-10-04T20:47:20.812Z,97022.00
2022-10-04T20:49:53.878Z,97020.25
2022-10-04T20:52:22.488Z,97035.50
2022-10-04T20:54:50.858Z,97030.63
2022-10-04T20:57:23.890Z,97029.16
2022-10-04T20:59:56.468Z,97035.78
2022-10-04T21:02:25.429Z,97032.47
2022-10-04T21:04:53.832Z,97040.03
2022-10-04T21:07:22.161Z,97043.53
2022-10-04T21:09:50.246Z,97042.81
2022-10-04T21:12:33.172Z,97035.81
2022-10-04T21:15:08.982Z,97047.66
2022-10-04T21:17:38.547Z,97042.13
2022-10-04T21:20:06.969Z,97045.00
2022-10-04T21:22:41.629Z,97037.81
2022-10-04T21:25:30.383Z,97045.06
2022-10-04T21:28:12.902Z,97046.31
2022-10-04T21:30:44.245Z,97045.81
2022-10-04T21:33:11.851Z,97044.19
2022-10-04T21:35:39.638Z,97045.78
2022-10-04T21:38:07.387Z,97046.84
2022-10-04T21:40:34.970Z,97041.53
2022-10-04T21:43:02.666Z,97046.88
2022-10-04T21:45:39.532Z,97043.13
2022-10-04T21:48:08.822Z,97046.31
2022-10-04T21:50:36.613Z,97053.25
2022-10-04T21:53:04.838Z,97058.06
2022-10-04T21:55:32.433Z,97065.50
2022-10-04T21:58:04.116Z,97061.22
2022-10-04T22:00:32.611Z,97057.50
2022-10-04T22:03:00.229Z,97055.91
2022-10-04T22:05:34.667Z,97058.06
2022-10-04T22:08:02.294Z,97050.84
2022-10-04T22:10:30.149Z,97047.66
2022-10-04T22:12:57.817Z,97051.13
2022-10-04T22:15:28.402Z,97039.16
2022-10-04T22:17:56.432Z,97041.53
2022-10-04T22:20:24.463Z,97037.81
2022-10-04T22:22:53.766Z,97027.00
2022-10-04T22:25:21.872Z,97025.09
2022-10-04T22:27:52.017Z,97022.28
2022-10-04T22:30:23.195Z,97016.03
2022-10-04T22:32:50.934Z,97006.44
2022-10-04T22:35:19.435Z,97010.16
2022-10-04T22:37:47.268Z,97009.63
2022-10-04T22:40:19.575Z,97008.56
2022-10-04T22:42:47.427Z,97000.56
2022-10-04T22:45:21.765Z,97005.91
2022-10-04T22:47:49.578Z,97004.56
2022-10-04T22:50:24.108Z,97004.28
2022-10-04T22:52:54.084Z,96996.88
2022-10-04T22:55:23.558Z,97001.13
2022-10-04T22:57:51.279Z,96998.47
2022-10-04T23:00:19.392Z,96997.66
2022-10-04T23:02:46.991Z,97005.53
2022-10-04T23:05:15.517Z,97002.31
2022-10-04T23:07:43.319Z,97002.56
2022-10-04T23:10:13.502Z,97007.91
2022-10-04T23:12:46.051Z,97003.69
2022-10-04T23:15:16.057Z,97000.53
2022-10-04T23:17:43.928Z,97001.66
2022-10-04T23:20:17.706Z,96995.00
2022-10-04T23:22:45.945Z,96993.41
2022-10-04T23:25:18.027Z,96987.28
2022-10-04T23:27:47.263Z,96985.72
2022-10-04T23:30:16.120Z,96992.34
2022-10-04T23:32:45.570Z,96987.81
2022-10-04T23:35:16.207Z,96992.28
2022-10-04T23:37:47.063Z,96991.66
2022-10-04T23:40:15.518Z,96990.34
2022-10-04T23:42:46.284Z,96988.16
2022-10-04T23:45:17.625Z,96983.69
2022-10-04T23:47:46.603Z,96961.78
2022-10-04T23:50:19.740Z,96966.84
2022-10-04T23:52:47.605Z,96966.00
2022-10-04T23:55:15.868Z,96972.66
2022-10-04T23:57:43.653Z,96973.47
